Stations météo

réclame
Mon MeteoGroup
Rensjoen, Suède (2031): Température de l'air & dewpoint: 11.11.2017 18:00:00 - 17.11.2017 18:00:00 (CET)Rensjoen, Suède (2031): Vitesse du vent & gusts: 11.11.2017 18:00:00 - 17.11.2017 18:00:00 (CET)Rensjoen, Suède (2031): Direction du vent: 11.11.2017 18:00:00 - 17.11.2017 18:00:00 (CET)Rensjoen, Suède (2031): visibility: 11.11.2017 18:00:00 - 17.11.2017 18:00:00 (CET)Rensjoen, Suède (2031): Quantités de précipitations: 11.11.2017 18:00:00 - 17.11.2017 18:00:00 (CET)
Date & Time tt [°C] td [°C] ff [km/h] ff [knt] fx [km/h] fx [knt] dd vv [km] rr [mm]
17.11.2017 18:00:00 - - - - - - - - -
17.11.2017 17:00:00 -8,7 -9,6 2 1 5 3 NNE 2,8 0,5
17.11.2017 16:00:00 -8,6 -9,5 2 1 5 3 N 2,4 0,3
17.11.2017 15:00:00 -8,4 -9,3 3 1 4 2 N 1,6 0,4
17.11.2017 14:00:00 -8,6 -9,5 2 1 4 2 N 2,2 0,4
17.11.2017 13:00:00 -8,7 -9,6 0 0 4 2 N 2,1 0,4
17.11.2017 12:00:00 -8,9 -9,8 0 0 5 3 N 2,1 0,3
17.11.2017 11:00:00 -9,1 -10,0 2 1 5 3 NNW 2,2 0,3
17.11.2017 10:00:00 -9,2 -10,1 0 0 2 1 N 0,9 0,0
17.11.2017 09:00:00 -9,3 -10,2 0 0 4 2 N 3,3 0,0
17.11.2017 08:00:00 -9,3 -10,2 0 0 6 3 N 2,0 0,0
17.11.2017 07:00:00 -9,0 -9,9 3 2 5 3 S 1,2 0,0
17.11.2017 06:00:00 -9,0 -9,9 3 1 5 3 SSW 0,7 0,0
17.11.2017 05:00:00 -9,0 -9,9 4 2 6 3 S 1,1 0,0
17.11.2017 04:00:00 -8,5 -9,4 2 1 4 2 S 4,0 0,0
17.11.2017 03:00:00 -8,6 -9,5 3 1 4 2 S 3,3 0,0
17.11.2017 02:00:00 -8,7 -9,6 0 0 6 3 N 0,7 0,0
17.11.2017 01:00:00 -9,0 -9,9 4 2 12 6 S 0,3 0,0
17.11.2017 00:00:00 -9,8 -10,7 8 4 11 6 SSW 0,6 0,0
16.11.2017 23:00:00 -11,5 -12,7 4 2 7 4 S 0,9 0,0
16.11.2017 22:00:00 -9,0 -9,9 5 3 7 4 S 50 0,0
16.11.2017 21:00:00 -9,4 -10,3 3 1 8 4 SE 50 0,0
16.11.2017 20:00:00 -8,6 -9,7 5 3 9 5 SE 50 0,0
16.11.2017 19:00:00 -8,9 -9,8 5 3 11 6 SW 50 0,0
16.11.2017 18:00:00 -6,6 -7,3 3 2 13 7 SSE 2,0 0,0
16.11.2017 17:00:00 -4,4 -4,8 6 4 10 5 S 0,3 0,0
16.11.2017 16:00:00 -4,5 -4,8 6 3 13 7 S 1,2 0,0
16.11.2017 15:00:00 -4,9 -5,3 6 4 10 5 ENE - 0,0
16.11.2017 14:00:00 -5,9 -6,7 3 2 8 4 WNW 12 0,0
16.11.2017 13:00:00 -5,2 -5,9 9 5 11 6 NE 50 0,0
16.11.2017 12:00:00 -7,1 -7,9 3 1 6 4 ENE 50 0,0
16.11.2017 11:00:00 -6,3 -7,1 0 0 8 4 N 12 0,0
16.11.2017 10:00:00 -5,7 -6,5 3 2 8 4 NNE 2,4 0,2
16.11.2017 09:00:00 -7,2 -8,3 3 1 9 5 N 50 0,0
16.11.2017 08:00:00 -8,6 -9,7 2 1 12 6 WSW 50 0,0
16.11.2017 07:00:00 -8,9 -10,0 4 2 10 5 SSW 50 0,0
16.11.2017 06:00:00 -9,4 -10,5 8 4 10 6 S 50 0,0
16.11.2017 05:00:00 -9,8 -11,6 4 2 8 4 SE 50 0,0
16.11.2017 04:00:00 -9,5 -10,6 4 2 10 6 SSW 50 0,0
16.11.2017 03:00:00 -9,7 -10,0 4 2 10 6 E 50 0,0
16.11.2017 02:00:00 -9,4 -10,3 5 3 6 4 SW 50 0,0
16.11.2017 01:00:00 -16,0 -17,7 3 2 7 4 S 50 0,0
16.11.2017 00:00:00 -12,2 -14,3 0 0 11 6 N 50 0,0
15.11.2017 23:00:00 -15,4 -16,5 2 1 7 4 S 33 0,0
15.11.2017 22:00:00 -14,1 -15,5 3 2 10 6 SE 47 0,0
15.11.2017 21:00:00 -12,9 -13,9 6 3 9 5 SSW 50 0,0
15.11.2017 20:00:00 -14,5 -15,5 3 2 9 5 SSW 12 0,0
15.11.2017 19:00:00 -12,6 -13,2 3 2 6 3 WSW 9 0,0
15.11.2017 18:00:00 -15,5 -17,4 4 2 9 5 SSW 50 0,0
15.11.2017 17:00:00 -15,9 -18,3 2 1 5 3 W 48 0,0
15.11.2017 16:00:00 -15,3 -17,1 0 0 6 4 N 50 0,0
15.11.2017 15:00:00 -13,4 -14,7 4 2 9 5 WSW 50 0,0
15.11.2017 14:00:00 -11,3 -12,2 0 0 3 1 N 50 0,0
15.11.2017 13:00:00 -10,1 -11,0 0 0 5 3 N 50 0,0
15.11.2017 12:00:00 -10,3 -11,5 3 2 6 3 SW 50 0,0
15.11.2017 11:00:00 -10,6 -11,4 4 2 6 4 S 50 0,0
15.11.2017 10:00:00 -11,3 -12,5 2 1 9 5 SSE 50 0,0
15.11.2017 09:00:00 -12,0 -13,0 6 4 8 4 S 50 0,0
15.11.2017 08:00:00 -13,7 -14,9 3 2 7 4 S 50 0,0
15.11.2017 07:00:00 -12,6 -14,5 3 2 9 5 S 50 0,0
15.11.2017 06:00:00 -10,4 -12,6 4 2 14 8 SE 50 0,0
15.11.2017 05:00:00 -10,8 -12,4 6 3 10 5 E 50 0,0
15.11.2017 04:00:00 -12,5 -14,2 4 2 10 5 S 50 0,0
15.11.2017 03:00:00 -12,9 -14,1 3 2 9 5 ESE 50 0,0
15.11.2017 02:00:00 -11,5 -14,3 2 1 9 5 SSE 50 0,0
15.11.2017 01:00:00 -10,9 -13,8 4 2 11 6 SSE 50 0,0
15.11.2017 00:00:00 -12,5 -14,8 4 2 10 5 SW 50 0,0
14.11.2017 23:00:00 -9,3 -11,5 7 4 11 6 S 50 0,0
14.11.2017 22:00:00 -11,1 -12,6 3 2 9 5 W 50 0,0
14.11.2017 21:00:00 -3,1 -8,9 9 5 18 10 NNW 50 0,0
14.11.2017 20:00:00 -2,3 -9,0 9 5 21 11 N 50 0,0
14.11.2017 19:00:00 -5,4 -10,6 3 2 14 7 NNE 50 0,0
14.11.2017 18:00:00 -6,1 -10,0 4 2 26 14 NW 50 0,0
14.11.2017 17:00:00 -7,4 -10,1 3 1 9 5 NNW 50 0,0
14.11.2017 16:00:00 -3,2 -8,1 6 3 14 8 ENE 50 0,0
14.11.2017 15:00:00 -3,5 -7,8 6 4 13 7 N 50 0,0
14.11.2017 14:00:00 -3,0 -7,3 5 3 19 11 N 50 0,0
14.11.2017 13:00:00 -1,6 -6,4 11 6 37 20 NNW 50 0,0
14.11.2017 12:00:00 -1,1 -5,3 22 12 33 18 NNW 50 0,0
14.11.2017 11:00:00 -1,4 -4,9 14 8 25 14 NNW 50 0,0
14.11.2017 10:00:00 -1,7 -4,9 12 6 24 13 NNW 50 0,0
14.11.2017 09:00:00 -1,7 -4,0 11 6 22 12 NNW 50 0,0
14.11.2017 08:00:00 -0,9 -3,6 17 9 27 14 NW 50 0,0
14.11.2017 07:00:00 -1,4 -2,7 10 6 16 9 NW 50 0,0
14.11.2017 06:00:00 -0,8 -2,1 11 6 22 12 NW 50 0,0
14.11.2017 05:00:00 -0,7 -1,8 14 7 29 16 NW 50 0,0
14.11.2017 04:00:00 -0,6 -1,4 21 11 31 17 NW 50 0,0
14.11.2017 03:00:00 -0,7 -1,3 15 8 27 14 NNW 50 0,0
14.11.2017 02:00:00 -1,0 -1,3 13 7 21 11 NNW 50 0,0
14.11.2017 01:00:00 -1,6 -2,0 9 5 22 12 NNW 50 0,0
14.11.2017 00:00:00 -2,1 -2,4 6 3 14 8 N 50 0,0
13.11.2017 23:00:00 -1,5 -1,9 8 4 19 10 N 50 0,0
13.11.2017 22:00:00 -1,4 -1,5 8 4 15 8 NNW 50 0,0
13.11.2017 21:00:00 -2,6 -2,9 3 1 6 3 NNE 50 0,0
13.11.2017 20:00:00 -2,5 -2,8 3 1 5 3 NNE 50 0,0
13.11.2017 19:00:00 -5,0 -5,3 3 2 4 2 NNE 39 0,0
13.11.2017 18:00:00 -10,1 -11,1 0 0 2 1 N 0,2 0,0
13.11.2017 17:00:00 -11,2 -12,2 0 0 3 2 N - 0,0
13.11.2017 16:00:00 -12,9 -14,1 0 0 3 2 N - 0,3
13.11.2017 15:00:00 -15,8 -17,5 0 0 3 2 N - 0,0
13.11.2017 14:00:00 -13,9 -15,3 0 0 3 1 N - 0,0
13.11.2017 13:00:00 -14,3 -16,3 0 0 3 1 N 3,4 0,0
13.11.2017 12:00:00 -15,5 -17,3 0 0 2 1 N 25 0,0
13.11.2017 11:00:00 -17,0 -18,6 0 0 4 2 N 43 0,0
13.11.2017 10:00:00 -19,4 -21,4 0 0 2 1 N 50 0,1
13.11.2017 09:00:00 -18,3 -20,3 0 0 2 1 N - 0,0
13.11.2017 08:00:00 -17,0 -18,6 0 0 3 2 N 50 0,0
13.11.2017 07:00:00 -15,6 -17,0 0 0 2 1 N 48 0,0
13.11.2017 06:00:00 -16,0 -17,8 0 0 3 1 N 1,9 0,0
13.11.2017 05:00:00 -14,6 -16,0 0 0 1 1 N 50 0,0
13.11.2017 04:00:00 -12,8 -14,2 0 0 2 1 N 3,4 0,0
13.11.2017 03:00:00 -11,6 -13,0 0 0 3 2 N 0,9 0,0
13.11.2017 02:00:00 -10,4 -11,4 0 0 3 1 N 50 0,0
13.11.2017 01:00:00 -9,3 -10,4 0 0 2 1 N 50 0,0
13.11.2017 00:00:00 -6,3 -7,0 0 0 1 1 N 5 0,2
12.11.2017 23:00:00 -5,7 -6,2 0 0 1 0 N 1,9 0,4
12.11.2017 22:00:00 -5,8 -6,3 0 0 2 1 N 1,9 0,4
12.11.2017 21:00:00 -5,6 -6,3 0 0 4 2 N 2,2 0,3
12.11.2017 20:00:00 -5,6 -6,1 2 1 4 2 NE 1,9 0,4
12.11.2017 19:00:00 -6,1 -6,8 0 0 3 2 N 1,7 0,3
12.11.2017 18:00:00 -6,4 -7,1 2 1 3 2 W 3,5 0,1
12.11.2017 17:00:00 -6,5 -7,2 0 0 4 2 N 29 0,0
12.11.2017 16:00:00 -5,8 -6,5 3 2 9 5 N 50 0,0
12.11.2017 15:00:00 -6,4 -7,1 6 4 9 5 NNE 50 0,0
12.11.2017 14:00:00 -7,0 -7,7 5 3 8 4 NE 50 0,0
12.11.2017 13:00:00 -9,2 -10,1 0 0 3 2 N 50 0,0
12.11.2017 12:00:00 -11,1 -12,4 0 0 2 1 N 50 0,0
12.11.2017 11:00:00 -10,6 -11,8 0 0 1 1 N 1,3 0,0
12.11.2017 10:00:00 -11,6 -12,8 0 0 2 1 N 35 0,0
12.11.2017 09:00:00 -13,6 -15,0 0 0 3 1 N 2,9 0,1
12.11.2017 08:00:00 -14,5 -15,9 0 0 3 1 N 50 0,1
12.11.2017 07:00:00 -14,7 -16,2 0 0 5 3 N 0,5 0,0
12.11.2017 06:00:00 -12,6 -13,9 2 1 3 2 NE 0,2 0,0
12.11.2017 05:00:00 -11,0 -12,2 2 1 6 4 SSW 0,2 0,0
12.11.2017 04:00:00 -11,7 -12,9 5 3 8 4 S 1,6 0,0
12.11.2017 03:00:00 -10,4 -11,4 3 1 8 4 S 0,5 0,0
12.11.2017 02:00:00 -9,8 -10,7 3 2 8 4 S 0,6 0,0
12.11.2017 01:00:00 -10,1 -10,9 6 3 11 6 SSW 0,6 0,0
12.11.2017 00:00:00 -10,6 -11,5 6 3 22 12 SSW 4,9 0,0
11.11.2017 23:00:00 -10,6 -11,1 16 8 31 17 S - 0,0
11.11.2017 22:00:00 -8,9 -10,7 22 12 31 17 SSE 50 0,0
11.11.2017 21:00:00 -8,5 -10,9 4 2 27 14 N 50 0,0
11.11.2017 20:00:00 -8,4 -10,5 4 2 26 14 NNW 50 0,0
11.11.2017 19:00:00 -7,8 -9,9 5 3 17 9 WSW 50 0,0
11.11.2017 18:00:00 -6,9 -9,3 7 4 28 15 E 50 0,0

tt = Température de l'air
td = dewpoint
ff = Vitesse du vent
fx = gusts
dd = Direction du vent
vv = visibility
rr = Quantités de précipitations

stations d'obs. à proximité